Time,TemperatureF,DewpointF,PressureIn,WindDirection,WindDirectionDegrees,WindSpeedMPH,WindSpeedGustMPH,Humidity,HourlyPrecipIn,Conditions,Clouds,dailyrainin,SoftwareType,DateUTC
2014-02-14 00:04:00,-999.0,-99.9,29.51,North,-999,-999.0,-999.0,-999,-99.99,,,0.00,weatherlink.com 1.10,2014-02-14 05:04:00,
2014-02-14 00:19:00,-999.0,-99.9,29.50,North,-999,-999.0,-999.0,-999,-99.99,,,0.00,weatherlink.com 1.10,2014-02-14 05:19:00,
2014-02-14 00:35:00,-999.0,-99.9,29.50,North,-999,-999.0,-999.0,-999,-99.99,,,0.00,weatherlink.com 1.10,2014-02-14 05:35:00,
2014-02-14 00:50:00,-999.0,-99.9,29.49,North,-999,-999.0,-999.0,-999,-99.99,,,0.00,weatherlink.com 1.10,2014-02-14 05:50:00,
2014-02-14 01:05:00,-999.0,-99.9,29.49,North,-999,-999.0,-999.0,-999,-99.99,,,0.00,weatherlink.com 1.10,2014-02-14 06:05:00,
2014-02-14 01:20:00,-999.0,-99.9,29.49,North,-999,-999.0,-999.0,-999,-99.99,,,0.00,weatherlink.com 1.10,2014-02-14 06:20:00,
2014-02-14 01:35:00,-999.0,-99.9,29.48,North,-999,-999.0,-999.0,-999,-99.99,,,0.00,weatherlink.com 1.10,2014-02-14 06:35:00,
2014-02-14 01:50:00,-999.0,-99.9,29.48,North,-999,-999.0,-999.0,-999,-99.99,,,0.00,weatherlink.com 1.10,2014-02-14 06:50:00,
2014-02-14 02:05:00,-999.0,-99.9,29.47,North,-999,-999.0,-999.0,-999,-99.99,,,0.00,weatherlink.com 1.10,2014-02-14 07:05:00,
2014-02-14 02:20:00,-999.0,-99.9,29.47,North,-999,-999.0,-999.0,-999,-99.99,,,0.00,weatherlink.com 1.10,2014-02-14 07:20:00,
2014-02-14 02:35:00,-999.0,-99.9,29.46,North,-999,-999.0,-999.0,-999,-99.99,,,0.00,weatherlink.com 1.10,2014-02-14 07:35:00,
2014-02-14 02:51:00,-999.0,-99.9,29.47,North,-999,-999.0,-999.0,-999,-99.99,,,0.00,weatherlink.com 1.10,2014-02-14 07:51:00,
2014-02-14 03:06:00,-999.0,-99.9,29.47,North,-999,-999.0,-999.0,-999,-99.99,,,0.00,weatherlink.com 1.10,2014-02-14 08:06:00,
2014-02-14 03:21:00,-999.0,-99.9,29.47,North,-999,-999.0,-999.0,-999,-99.99,,,0.00,weatherlink.com 1.10,2014-02-14 08:21:00,
2014-02-14 03:36:00,-999.0,-99.9,29.47,North,-999,-999.0,-999.0,-999,-99.99,,,0.00,weatherlink.com 1.10,2014-02-14 08:36:00,
2014-02-14 03:51:00,-999.0,-99.9,29.46,North,-999,-999.0,-999.0,-999,-99.99,,,0.00,weatherlink.com 1.10,2014-02-14 08:51:00,
2014-02-14 04:06:00,-999.0,-99.9,29.47,North,-999,-999.0,-999.0,-999,-99.99,,,0.00,weatherlink.com 1.10,2014-02-14 09:06:00,
2014-02-14 04:21:00,-999.0,-99.9,29.47,North,-999,-999.0,-999.0,-999,-99.99,,,0.00,weatherlink.com 1.10,2014-02-14 09:21:00,
2014-02-14 04:36:00,-999.0,-99.9,29.47,North,-999,-999.0,-999.0,-999,-99.99,,,0.00,weatherlink.com 1.10,2014-02-14 09:36:00,
2014-02-14 06:45:00,-999.0,-99.9,29.49,North,-999,-999.0,-999.0,-999,-99.99,,,0.00,weatherlink.com 1.10,2014-02-14 11:45:00,
2014-02-14 06:52:00,-999.0,-99.9,29.49,North,-999,-999.0,-999.0,-999,-99.99,,,0.00,weatherlink.com 1.10,2014-02-14 11:52:00,
2014-02-14 07:07:00,-999.0,-99.9,29.49,North,-999,-999.0,-999.0,-999,-99.99,,,0.00,weatherlink.com 1.10,2014-02-14 12:07:00,
2014-02-14 07:22:00,-999.0,-99.9,29.50,North,-999,-999.0,-999.0,-999,-99.99,,,0.00,weatherlink.com 1.10,2014-02-14 12:22:00,
2014-02-14 07:37:00,-999.0,-99.9,29.50,North,-999,-999.0,-999.0,-999,-99.99,,,0.00,weatherlink.com 1.10,2014-02-14 12:37:00,
2014-02-14 07:54:00,-999.0,-99.9,29.51,North,-999,-999.0,-999.0,-999,-99.99,,,0.00,weatherlink.com 1.10,2014-02-14 12:54:00,
2014-02-14 09:26:00,-999.0,-99.9,29.54,North,-999,-999.0,-999.0,-999,-99.99,,,0.00,weatherlink.com 1.10,2014-02-14 14:26:00,
2014-02-14 09:37:00,20.6,19.0,29.55,NE,49,2.0,-999.0,94,-99.99,,,0.00,weatherlink.com 1.10,2014-02-14 14:37:00,
2014-02-14 09:56:00,21.0,20.0,29.56,NE,35,2.0,-999.0,94,-99.99,,,0.00,weatherlink.com 1.10,2014-02-14 14:56:00,
2014-02-14 10:30:00,21.3,20.0,29.57,NE,41,4.0,-999.0,93,-99.99,,,0.00,weatherlink.com 1.10,2014-02-14 15:30:00,
2014-02-14 11:22:00,22.6,21.0,29.59,NE,43,0.0,-999.0,93,-99.99,,,0.00,weatherlink.com 1.10,2014-02-14 16:22:00,
2014-02-14 11:40:00,23.0,21.0,29.59,NE,43,2.0,-999.0,92,-99.99,,,0.00,weatherlink.com 1.10,2014-02-14 16:40:00,
2014-02-14 11:53:00,23.5,22.0,29.60,NE,40,0.0,-999.0,92,-99.99,,,0.00,weatherlink.com 1.10,2014-02-14 16:53:00,
2014-02-14 12:08:00,24.1,22.0,29.60,NE,42,0.0,-999.0,92,-99.99,,,0.00,weatherlink.com 1.10,2014-02-14 17:08:00,
2014-02-14 12:23:00,24.4,22.0,29.60,NE,40,4.0,-999.0,91,-99.99,,,0.00,weatherlink.com 1.10,2014-02-14 17:23:00,
2014-02-14 12:38:00,23.9,22.0,29.60,North,360,3.0,-999.0,91,-99.99,,,0.00,weatherlink.com 1.10,2014-02-14 17:38:00,
2014-02-14 12:53:00,23.9,22.0,29.60,NNE,13,6.0,-999.0,91,-99.99,,,0.00,weatherlink.com 1.10,2014-02-14 17:53:00,
2014-02-14 13:08:00,23.8,21.0,29.60,NNE,17,6.0,-999.0,90,-99.99,,,0.00,weatherlink.com 1.10,2014-02-14 18:08:00,
2014-02-14 13:23:00,24.3,22.0,29.60,NNE,25,2.0,-999.0,90,-99.99,,,0.00,weatherlink.com 1.10,2014-02-14 18:23:00,
2014-02-14 13:38:00,24.7,22.0,29.60,NNE,26,2.0,-999.0,88,-99.99,,,0.00,weatherlink.com 1.10,2014-02-14 18:38:00,
2014-02-14 13:53:00,26.0,23.0,29.61,North,11,0.0,-999.0,88,-99.99,,,0.00,weatherlink.com 1.10,2014-02-14 18:53:00,
2014-02-14 14:23:00,23.3,21.0,29.62,WNW,285,5.0,-999.0,91,-99.99,,,0.00,weatherlink.com 1.10,2014-02-14 19:23:00,
2014-02-14 14:38:00,23.1,21.0,29.62,West,281,4.0,-999.0,93,-99.99,,,0.00,weatherlink.com 1.10,2014-02-14 19:38:00,
2014-02-14 14:53:00,23.4,22.0,29.62,West,281,4.0,-999.0,92,-99.99,,,0.00,weatherlink.com 1.10,2014-02-14 19:53:00,
2014-02-14 15:08:00,23.5,22.0,29.63,West,281,5.0,-999.0,92,-99.99,,,0.00,weatherlink.com 1.10,2014-02-14 20:08:00,
2014-02-14 15:38:00,24.4,22.0,29.63,West,280,4.0,-999.0,90,-99.99,,,0.00,weatherlink.com 1.10,2014-02-14 20:38:00,
2014-02-14 15:53:00,24.3,22.0,29.64,North,360,2.0,-999.0,90,-99.99,,,0.00,weatherlink.com 1.10,2014-02-14 20:53:00,
2014-02-14 16:08:00,23.1,21.0,29.64,North,360,7.0,-999.0,91,-99.99,,,0.00,weatherlink.com 1.10,2014-02-14 21:08:00,
2014-02-14 16:23:00,23.1,21.0,29.65,North,360,10.0,-999.0,92,-99.99,,,0.00,weatherlink.com 1.10,2014-02-14 21:23:00,
2014-02-14 16:38:00,22.4,20.0,29.67,WNW,294,2.0,-999.0,90,-99.99,,,0.00,weatherlink.com 1.10,2014-02-14 21:38:00,
2014-02-14 16:53:00,21.1,18.0,29.67,NNW,340,2.0,-999.0,88,-99.99,,,0.00,weatherlink.com 1.10,2014-02-14 21:53:00,
2014-02-14 17:08:00,19.6,16.0,29.69,NNW,341,4.0,-999.0,86,-99.99,,,0.00,weatherlink.com 1.10,2014-02-14 22:08:00,
2014-02-14 17:23:00,17.9,14.0,29.70,NNW,340,0.0,-999.0,85,-99.99,,,0.00,weatherlink.com 1.10,2014-02-14 22:23:00,
2014-02-14 17:38:00,16.7,13.0,29.71,NW,325,1.0,-999.0,86,-99.99,,,0.00,weatherlink.com 1.10,2014-02-14 22:38:00,
2014-02-14 17:53:00,15.9,12.0,29.73,NNW,338,0.0,-999.0,85,-99.99,,,0.00,weatherlink.com 1.10,2014-02-14 22:53:00,
2014-02-14 18:08:00,-999.0,-99.9,29.74,North,-999,-999.0,-999.0,-999,-99.99,,,0.00,weatherlink.com 1.10,2014-02-14 23:08:00,
2014-02-14 18:23:00,-999.0,-99.9,29.75,North,-999,-999.0,-999.0,-999,-99.99,,,0.00,weatherlink.com 1.10,2014-02-14 23:23:00,
2014-02-14 18:38:00,-999.0,-99.9,29.76,North,-999,-999.0,-999.0,-999,-99.99,,,0.00,weatherlink.com 1.10,2014-02-14 23:38:00,
2014-02-14 18:54:00,-999.0,-99.9,29.76,North,-999,-999.0,-999.0,-999,-99.99,,,0.00,weatherlink.com 1.10,2014-02-14 23:54:00,
2014-02-14 19:09:00,-999.0,-99.9,29.77,North,-999,-999.0,-999.0,-999,-99.99,,,0.00,weatherlink.com 1.10,2014-02-15 00:09:00,
2014-02-14 19:24:00,-999.0,-99.9,29.77,North,-999,-999.0,-999.0,-999,-99.99,,,0.00,weatherlink.com 1.10,2014-02-15 00:24:00,
2014-02-14 19:39:00,-999.0,-99.9,29.78,North,-999,-999.0,-999.0,-999,-99.99,,,0.00,weatherlink.com 1.10,2014-02-15 00:39:00,
2014-02-14 19:54:00,-999.0,-99.9,29.79,North,-999,-999.0,-999.0,-999,-99.99,,,0.00,weatherlink.com 1.10,2014-02-15 00:54:00,
2014-02-14 20:09:00,-999.0,-99.9,29.79,North,-999,-999.0,-999.0,-999,-99.99,,,0.00,weatherlink.com 1.10,2014-02-15 01:09:00,
2014-02-14 20:24:00,-999.0,-99.9,29.79,North,-999,-999.0,-999.0,-999,-99.99,,,0.00,weatherlink.com 1.10,2014-02-15 01:24:00,
2014-02-14 20:39:00,-999.0,-99.9,29.80,North,-999,-999.0,-999.0,-999,-99.99,,,0.00,weatherlink.com 1.10,2014-02-15 01:39:00,
2014-02-14 20:54:00,-999.0,-99.9,29.80,North,-999,-999.0,-999.0,-999,-99.99,,,0.00,weatherlink.com 1.10,2014-02-15 01:54:00,
2014-02-14 21:09:00,-999.0,-99.9,29.81,North,-999,-999.0,-999.0,-999,-99.99,,,0.00,weatherlink.com 1.10,2014-02-15 02:09:00,
2014-02-14 21:24:00,-999.0,-99.9,29.81,North,-999,-999.0,-999.0,-999,-99.99,,,0.00,weatherlink.com 1.10,2014-02-15 02:24:00,
2014-02-14 21:39:00,-999.0,-99.9,29.81,North,-999,-999.0,-999.0,-999,-99.99,,,0.00,weatherlink.com 1.10,2014-02-15 02:39:00,
2014-02-14 21:54:00,-999.0,-99.9,29.82,North,-999,-999.0,-999.0,-999,-99.99,,,0.00,weatherlink.com 1.10,2014-02-15 02:54:00,
2014-02-14 22:10:00,-999.0,-99.9,29.82,North,-999,-999.0,-999.0,-999,-99.99,,,0.00,weatherlink.com 1.10,2014-02-15 03:10:00,
2014-02-14 22:25:00,-999.0,-99.9,29.82,North,-999,-999.0,-999.0,-999,-99.99,,,0.00,weatherlink.com 1.10,2014-02-15 03:25:00,
2014-02-14 22:40:00,-999.0,-99.9,29.82,North,-999,-999.0,-999.0,-999,-99.99,,,0.00,weatherlink.com 1.10,2014-02-15 03:40:00,
2014-02-14 22:55:00,-999.0,-99.9,29.82,North,-999,-999.0,-999.0,-999,-99.99,,,0.00,weatherlink.com 1.10,2014-02-15 03:55:00,
2014-02-14 23:10:00,-999.0,-99.9,29.82,North,-999,-999.0,-999.0,-999,-99.99,,,0.00,weatherlink.com 1.10,2014-02-15 04:10:00,
2014-02-14 23:25:00,-999.0,-99.9,29.82,North,-999,-999.0,-999.0,-999,-99.99,,,0.00,weatherlink.com 1.10,2014-02-15 04:25:00,
2014-02-14 23:40:00,-999.0,-99.9,29.83,North,-999,-999.0,-999.0,-999,-99.99,,,0.00,weatherlink.com 1.10,2014-02-15 04:40:00,
2014-02-14 23:55:00,-999.0,-99.9,29.82,North,-999,-999.0,-999.0,-999,-99.99,,,0.00,weatherlink.com 1.10,2014-02-15 04:55:00,